Time;durP1;ratioP1;P1;durP2;ratioP2;P2;SDS_P1;SDS_P2;PMS_P1;PMS_P2;Temp;Humidity;BMP_temperature;BMP_pressure;BME280_temperature;BME280_humidity;BME280_pressure;Samples;Min_cycle;Max_cycle;Signal;HPM_P1;HPM_P2
2021/03/07 00:01:28;;;;;;;5.53;2.00;;;3.00;99.90;;;;;;5086294;28;20040;-63
2021/03/07 00:04:37;;;;;;;3.80;1.55;;;3.10;99.90;;;;;;5084614;28;20050;-62
2021/03/07 00:11:11;;;;;;;3.42;1.67;;;3.00;99.90;;;;;;5093813;28;20035;-62
2021/03/07 00:14:08;;;;;;;3.42;1.52;;;3.10;99.90;;;;;;5089993;28;20090;-62
2021/03/07 00:21:04;;;;;;;3.10;1.27;;;3.10;99.90;;;;;;5094012;28;20085;-62
2021/03/07 00:23:42;;;;;;;4.10;1.48;;;3.10;99.90;;;;;;5093438;28;20075;-62
2021/03/07 00:26:13;;;;;;;3.28;1.60;;;3.20;99.90;;;;;;5093937;28;20051;-62
2021/03/07 00:28:40;;;;;;;4.00;1.88;;;3.20;99.90;;;;;;5074704;28;20075;-63
2021/03/07 00:31:05;;;;;;;5.32;2.38;;;3.20;99.90;;;;;;5093918;28;20044;-62
2021/03/07 00:33:57;;;;;;;3.90;1.38;;;3.20;99.90;;;;;;5094023;28;20048;-63
2021/03/07 00:40:57;;;;;;;2.15;1.20;;;3.30;99.90;;;;;;5093700;28;20105;-63
2021/03/07 00:43:32;;;;;;;2.90;1.58;;;3.30;99.90;;;;;;5073539;28;20048;-63
2021/03/07 00:46:06;;;;;;;3.78;1.88;;;3.30;99.90;;;;;;5087919;28;20046;-62
2021/03/07 00:48:57;;;;;;;4.88;1.75;;;3.30;99.90;;;;;;5093211;28;20069;-62
2021/03/07 00:51:29;;;;;;;6.65;1.77;;;3.40;99.90;;;;;;5093899;28;20413;-63
2021/03/07 00:58:27;;;;;;;4.13;1.30;;;3.30;99.90;;;;;;5093395;28;20034;-62
2021/03/07 01:00:58;;;;;;;2.20;1.02;;;3.30;99.90;;;;;;5087791;28;20052;-62
2021/03/07 01:04:01;;;;;;;2.70;1.30;;;3.30;99.90;;;;;;5087923;28;20036;-63
2021/03/07 01:06:33;;;;;;;3.38;1.30;;;3.40;99.90;;;;;;5088412;28;20047;-62
2021/03/07 01:13:27;;;;;;;2.63;1.23;;;3.40;99.90;;;;;;5093078;28;20039;-62
2021/03/07 01:15:59;;;;;;;1.63;0.80;;;3.40;99.90;;;;;;5097179;28;20051;-63
2021/03/07 01:18:30;;;;;;;2.20;1.20;;;3.50;99.90;;;;;;5100577;28;20043;-62
2021/03/07 01:28:33;;;;;;;1.63;0.82;;;3.50;99.90;;;;;;5099859;28;20434;-63
2021/03/07 01:31:03;;;;;;;2.75;1.13;;;3.60;99.90;;;;;;5099897;28;20043;-62
2021/03/07 01:33:35;;;;;;;2.83;1.20;;;3.50;99.90;;;;;;5099868;28;20044;-63
2021/03/07 01:36:03;;;;;;;2.33;1.05;;;3.50;99.90;;;;;;5081854;28;20086;-62
2021/03/07 01:38:31;;;;;;;2.95;1.45;;;3.50;99.90;;;;;;5099975;28;20119;-62
2021/03/07 01:41:03;;;;;;;2.38;1.10;;;3.60;99.90;;;;;;5082008;28;20044;-63
2021/03/07 01:43:30;;;;;;;1.98;1.02;;;3.50;99.90;;;;;;5099744;28;20075;-62
2021/03/07 01:45:58;;;;;;;2.92;1.42;;;3.50;99.90;;;;;;5081960;28;20380;-63
2021/03/07 01:48:52;;;;;;;3.13;1.42;;;3.60;99.90;;;;;;5097522;28;20467;-63
2021/03/07 01:51:25;;;;;;;1.90;1.08;;;3.50;99.90;;;;;;5064167;28;20048;-62
2021/03/07 01:54:05;;;;;;;2.03;0.90;;;3.50;99.90;;;;;;5100053;28;20081;-63
2021/03/07 01:56:38;;;;;;;4.37;1.20;;;3.50;99.90;;;;;;5082213;28;20055;-63
2021/03/07 01:59:19;;;;;;;2.78;1.10;;;3.40;99.90;;;;;;5099857;28;20343;-62
2021/03/07 02:01:54;;;;;;;1.50;0.68;;;3.50;99.90;;;;;;5099609;28;20055;-63
2021/03/07 02:04:38;;;;;;;2.50;1.17;;;3.50;99.90;;;;;;5099635;28;20051;-62
2021/03/07 02:11:05;;;;;;;1.42;0.90;;;3.40;99.90;;;;;;5099497;28;20042;-63
2021/03/07 02:13:35;;;;;;;1.70;0.85;;;3.50;99.90;;;;;;5098707;28;20043;-63
2021/03/07 02:16:16;;;;;;;2.35;1.25;;;3.50;99.90;;;;;;5079456;28;20037;-63
2021/03/07 02:19:11;;;;;;;2.30;0.82;;;3.50;99.90;;;;;;5080291;28;20495;-62
2021/03/07 02:21:51;;;;;;;3.40;1.42;;;3.50;99.90;;;;;;5099453;28;20072;-62
2021/03/07 02:31:50;;;;;;;1.38;0.80;;;3.50;99.90;;;;;;5095939;28;20034;-62
2021/03/07 02:34:45;;;;;;;3.80;1.40;;;3.50;99.90;;;;;;5096162;28;20067;-62
2021/03/07 02:37:33;;;;;;;1.90;1.00;;;3.50;99.90;;;;;;5096265;28;20055;-62
2021/03/07 02:40:09;;;;;;;4.43;1.63;;;3.50;99.90;;;;;;5075902;28;20587;-63
2021/03/07 02:42:39;;;;;;;2.92;1.40;;;3.50;99.90;;;;;;5095282;28;20043;-62
2021/03/07 02:45:26;;;;;;;3.65;1.40;;;3.60;99.90;;;;;;5095793;28;20048;-62
2021/03/07 02:47:54;;;;;;;3.78;1.30;;;3.50;99.90;;;;;;5093266;28;20056;-63
2021/03/07 02:50:31;;;;;;;2.40;1.05;;;3.60;99.90;;;;;;5095734;28;20044;-63
2021/03/07 02:56:52;;;;;;;3.45;1.20;;;3.50;99.90;;;;;;5095532;28;20043;-62
2021/03/07 03:00:05;;;;;;;3.35;1.27;;;3.60;99.90;;;;;;5095987;28;20056;-63
2021/03/07 03:02:40;;;;;;;2.72;1.00;;;3.50;99.90;;;;;;5095085;28;20047;-63
2021/03/07 03:05:11;;;;;;;4.38;1.25;;;3.50;99.90;;;;;;5077534;28;20068;-63
2021/03/07 03:07:51;;;;;;;1.73;0.88;;;3.60;99.90;;;;;;5095648;28;20048;-62
2021/03/07 03:10:36;;;;;;;2.72;0.90;;;3.60;99.90;;;;;;5096224;28;20040;-64
2021/03/07 03:13:09;;;;;;;3.70;1.23;;;3.60;99.90;;;;;;5079348;28;20085;-63
2021/03/07 03:15:42;;;;;;;1.83;1.00;;;3.60;99.90;;;;;;5095443;28;20052;-63
2021/03/07 03:18:17;;;;;;;2.25;0.75;;;3.60;99.90;;;;;;5095137;28;20064;-63
2021/03/07 03:20:46;;;;;;;2.20;1.10;;;3.60;99.90;;;;;;5080404;28;20100;-63
2021/03/07 03:27:33;;;;;;;1.55;0.93;;;3.60;99.90;;;;;;5090071;28;20062;-63
2021/03/07 03:30:09;;;;;;;2.55;1.00;;;3.60;99.90;;;;;;5074893;28;20047;-63
2021/03/07 03:32:39;;;;;;;1.33;0.80;;;3.60;99.90;;;;;;5094651;28;20040;-63
2021/03/07 03:35:32;;;;;;;1.95;0.90;;;3.60;99.90;;;;;;5094821;28;20072;-63
2021/03/07 03:38:16;;;;;;;1.48;0.85;;;3.60;99.90;;;;;;5095028;28;20051;-63
2021/03/07 03:45:03;;;;;;;3.80;0.90;;;3.50;99.90;;;;;;5079393;28;20039;-63
2021/03/07 03:47:43;;;;;;;1.83;0.82;;;3.60;99.90;;;;;;5093916;28;20092;-63
2021/03/07 03:50:12;;;;;;;1.88;0.80;;;3.60;99.90;;;;;;5070558;28;20073;-63
2021/03/07 03:52:43;;;;;;;1.45;0.70;;;3.60;99.90;;;;;;5045644;28;20075;-62
2021/03/07 03:55:41;;;;;;;2.45;0.80;;;3.60;99.90;;;;;;5054293;28;20045;-63
2021/03/07 03:58:26;;;;;;;1.52;0.75;;;3.60;99.90;;;;;;5038747;28;20583;-63
2021/03/07 04:01:17;;;;;;;1.45;0.80;;;3.60;99.90;;;;;;5040856;28;20051;-63
2021/03/07 04:04:37;;;;;;;0.95;0.57;;;3.60;99.90;;;;;;5054444;28;20048;-63
2021/03/07 04:07:40;;;;;;;3.38;0.60;;;3.60;99.90;;;;;;5049410;28;20041;-63
2021/03/07 04:10:08;;;;;;;2.38;0.90;;;3.60;99.90;;;;;;5048540;28;20041;-63
2021/03/07 04:20:27;;;;;;;1.33;0.70;;;3.70;99.90;;;;;;5053701;28;20055;-63
2021/03/07 04:23:20;;;;;;;2.00;0.77;;;3.70;99.90;;;;;;5036156;28;20432;-62
2021/03/07 04:25:47;;;;;;;2.72;1.02;;;3.70;99.90;;;;;;5039345;28;20037;-63
2021/03/07 04:28:14;;;;;;;1.77;0.90;;;3.70;99.90;;;;;;5039018;28;20503;-63
2021/03/07 04:30:53;;;;;;;2.00;0.70;;;3.70;99.90;;;;;;5052735;28;20053;-63
2021/03/07 04:33:27;;;;;;;1.38;0.80;;;3.70;99.90;;;;;;5049424;28;20047;-63
2021/03/07 04:40:08;;;;;;;2.78;0.93;;;3.70;99.90;;;;;;5053153;28;20099;-63
2021/03/07 04:42:44;;;;;;;1.90;0.70;;;3.70;99.90;;;;;;5053299;28;20043;-63
2021/03/07 04:45:16;;;;;;;3.38;0.88;;;3.80;99.90;;;;;;5053349;28;20045;-63
2021/03/07 04:47:43;;;;;;;2.72;0.70;;;3.70;99.90;;;;;;5050218;28;20047;-65
2021/03/07 04:50:16;;;;;;;2.35;0.98;;;3.70;99.90;;;;;;5058501;28;20549;-63
2021/03/07 04:52:43;;;;;;;2.37;0.90;;;3.80;99.90;;;;;;5073838;28;20056;-63
2021/03/07 04:55:15;;;;;;;2.55;1.00;;;3.70;99.90;;;;;;5093592;28;20673;-63
2021/03/07 04:57:49;;;;;;;4.97;1.10;;;3.70;99.90;;;;;;5088976;28;20044;-63
2021/03/07 05:00:19;;;;;;;4.15;0.82;;;3.70;99.90;;;;;;5074878;28;20053;-63
2021/03/07 05:02:46;;;;;;;4.55;1.15;;;3.70;99.90;;;;;;5093422;28;20098;-63
2021/03/07 05:05:27;;;;;;;2.17;1.00;;;3.70;99.90;;;;;;5093233;28;20048;-63
2021/03/07 05:08:02;;;;;;;2.70;0.93;;;3.70;99.90;;;;;;5074991;28;20045;-63
2021/03/07 05:10:33;;;;;;;1.55;0.85;;;3.70;99.90;;;;;;5093468;28;20040;-63
2021/03/07 05:13:12;;;;;;;1.48;0.80;;;3.70;99.90;;;;;;5057833;28;20450;-63
2021/03/07 05:15:56;;;;;;;2.35;0.80;;;3.70;99.90;;;;;;5076924;28;20044;-63
2021/03/07 05:22:44;;;;;;;1.48;0.70;;;3.70;99.90;;;;;;5093123;28;20035;-63
2021/03/07 05:25:18;;;;;;;2.58;1.02;;;3.60;99.90;;;;;;5086499;28;20074;-63
2021/03/07 05:27:54;;;;;;;1.50;0.80;;;3.70;99.90;;;;;;5093320;28;20167;-63
2021/03/07 05:30:22;;;;;;;2.20;1.00;;;3.60;99.90;;;;;;5093586;28;20052;-63
2021/03/07 05:32:54;;;;;;;2.53;0.73;;;3.70;99.90;;;;;;5093318;28;20040;-63
2021/03/07 05:35:22;;;;;;;1.33;0.80;;;3.60;99.90;;;;;;5093282;28;20196;-63
2021/03/07 05:37:51;;;;;;;2.42;0.93;;;3.60;99.90;;;;;;5089829;28;20067;-62
2021/03/07 05:40:23;;;;;;;1.92;0.90;;;3.60;99.90;;;;;;5080883;28;20048;-62
2021/03/07 05:42:52;;;;;;;1.88;0.90;;;3.50;99.90;;;;;;5093185;28;20052;-63
2021/03/07 05:45:26;;;;;;;5.10;1.20;;;3.60;99.90;;;;;;5093114;28;20050;-62
2021/03/07 05:47:55;;;;;;;3.65;0.98;;;3.60;99.90;;;;;;5091138;28;20040;-63
2021/03/07 05:50:27;;;;;;;3.25;1.30;;;3.60;99.90;;;;;;5093118;28;20123;-62
2021/03/07 05:52:57;;;;;;;1.52;0.85;;;3.60;99.90;;;;;;5093143;28;20052;-63
2021/03/07 05:55:25;;;;;;;3.13;0.93;;;3.60;99.90;;;;;;5092746;28;20048;-62
2021/03/07 05:57:58;;;;;;;2.05;0.90;;;3.60;99.90;;;;;;5093178;28;20052;-62
2021/03/07 06:04:36;;;;;;;3.30;1.10;;;3.60;99.90;;;;;;5096684;28;20089;-62
2021/03/07 06:07:54;;;;;;;2.00;0.82;;;3.60;99.90;;;;;;5090002;28;20506;-63
2021/03/07 06:10:25;;;;;;;1.30;0.70;;;3.60;99.90;;;;;;5096743;28;20403;-63
2021/03/07 06:13:30;;;;;;;2.78;1.33;;;3.60;99.90;;;;;;5096678;28;20048;-63
2021/03/07 06:16:15;;;;;;;2.03;1.10;;;3.50;99.90;;;;;;5089525;28;20487;-63
2021/03/07 06:23:05;;;;;;;2.35;1.00;;;3.50;99.90;;;;;;5096329;28;20027;-62
2021/03/07 06:32:57;;;;;;;1.80;0.98;;;3.60;99.90;;;;;;5086815;28;20039;-63
2021/03/07 06:35:33;;;;;;;2.85;1.23;;;3.60;99.90;;;;;;5095887;28;20044;-63
2021/03/07 06:38:09;;;;;;;2.90;1.58;;;3.60;99.90;;;;;;5076212;28;20514;-63
2021/03/07 06:48:02;;;;;;;2.65;1.30;;;3.70;99.90;;;;;;5093574;28;20541;-62
2021/03/07 06:50:54;;;;;;;2.20;1.30;;;3.70;99.90;;;;;;5091377;28;20048;-63
2021/03/07 06:57:27;;;;;;;2.75;1.30;;;3.70;99.90;;;;;;5095316;28;20506;-62
2021/03/07 06:59:54;;;;;;;4.70;1.98;;;3.80;99.90;;;;;;5077000;28;20123;-62
2021/03/07 07:02:23;;;;;;;3.97;2.00;;;3.70;99.90;;;;;;5095611;28;20046;-62
2021/03/07 07:05:31;;;;;;;3.90;1.73;;;3.70;99.90;;;;;;5077688;28;20384;-63
2021/03/07 07:12:20;;;;;;;4.97;1.73;;;3.70;99.90;;;;;;5090234;28;20063;-63
2021/03/07 07:15:16;;;;;;;3.15;2.03;;;3.80;99.90;;;;;;5077374;28;20040;-63
2021/03/07 07:18:04;;;;;;;3.78;2.10;;;3.80;99.90;;;;;;5092740;28;20121;-62
2021/03/07 07:20:59;;;;;;;4.40;1.98;;;3.80;99.90;;;;;;5095037;28;20048;-62
2021/03/07 07:27:24;;;;;;;7.35;2.40;;;3.80;99.90;;;;;;5094997;28;20039;-62
2021/03/07 07:29:56;;;;;;;3.75;2.10;;;3.80;99.90;;;;;;5090694;28;20475;-63
2021/03/07 07:32:31;;;;;;;5.55;2.67;;;3.80;99.90;;;;;;5095080;28;20038;-62
2021/03/07 07:35:08;;;;;;;3.72;2.08;;;3.80;99.90;;;;;;5094545;28;20043;-63
2021/03/07 07:44:53;;;;;;;3.60;1.42;;;3.90;99.90;;;;;;5094732;28;20044;-63
2021/03/07 07:47:21;;;;;;;5.78;1.92;;;3.90;99.90;;;;;;5089614;28;20088;-63
2021/03/07 07:49:55;;;;;;;5.80;2.38;;;3.90;99.90;;;;;;5074351;28;20512;-63
2021/03/07 07:52:24;;;;;;;4.55;2.20;;;3.90;99.90;;;;;;5092754;28;20486;-62
2021/03/07 07:55:01;;;;;;;3.58;1.92;;;3.90;99.90;;;;;;5094864;28;20404;-62
2021/03/07 07:57:45;;;;;;;3.80;1.88;;;3.90;99.90;;;;;;5090303;28;20123;-63
2021/03/07 08:00:47;;;;;;;5.15;2.13;;;3.90;99.90;;;;;;5077554;28;20048;-63
2021/03/07 08:07:42;;;;;;;5.63;2.30;;;4.00;99.90;;;;;;5087607;28;20089;-63
2021/03/07 08:20:58;;;;;;;4.80;2.15;;;4.00;99.90;;;;;;5093937;28;20035;-63
2021/03/07 08:27:33;;;;;;;4.97;2.28;;;4.10;99.90;;;;;;5093955;28;20038;-63
2021/03/07 08:30:08;;;;;;;6.55;2.88;;;4.10;99.90;;;;;;5085572;28;20442;-63
2021/03/07 08:33:11;;;;;;;4.50;2.75;;;4.10;99.90;;;;;;5093768;28;20048;-63
2021/03/07 08:36:10;;;;;;;8.10;2.67;;;4.20;99.90;;;;;;5093812;28;20121;-63
2021/03/07 08:42:29;;;;;;;4.00;2.20;;;4.20;99.90;;;;;;5093295;28;20074;-63
2021/03/07 08:45:32;;;;;;;6.18;2.75;;;4.20;99.90;;;;;;5094209;28;20552;-63
2021/03/07 08:52:29;;;;;;;5.05;2.35;;;4.30;99.90;;;;;;5089121;28;20089;-63
2021/03/07 09:02:34;;;;;;;5.20;2.78;;;4.30;99.90;;;;;;5093423;28;20482;-63
2021/03/07 09:05:08;;;;;;;;;;;4.40;99.90;;;;;;5077091;28;20044;-63
2021/03/07 09:07:34;;;;;;;5.93;2.90;;;4.40;99.90;;;;;;5093603;28;19959;-62
2021/03/07 09:10:02;;;;;;;8.82;3.65;;;4.50;99.90;;;;;;5093828;28;20048;-63
2021/03/07 09:12:33;;;;;;;8.38;3.65;;;4.40;99.90;;;;;;5093450;28;20041;-63
2021/03/07 09:15:15;;;;;;;8.50;3.83;;;4.50;99.90;;;;;;5093603;28;20464;-63
2021/03/07 09:17:50;;;;;;;7.40;3.63;;;4.50;99.90;;;;;;5091524;28;20143;-63
2021/03/07 09:20:17;;;;;;;7.57;3.97;;;4.50;99.90;;;;;;5093731;28;20070;-63
2021/03/07 09:22:44;;;;;;;10.02;4.22;;;4.70;99.90;;;;;;5093126;28;20040;-63
2021/03/07 09:25:11;;;;;;;11.85;3.45;;;4.70;99.90;;;;;;5093102;28;20046;-63
2021/03/07 09:27:41;;;;;;;8.90;3.80;;;4.70;99.90;;;;;;5093109;28;20097;-63
2021/03/07 09:30:21;;;;;;;7.40;4.00;;;4.80;99.90;;;;;;5093369;28;20372;-63
2021/03/07 09:33:21;;;;;;;7.72;3.90;;;4.80;99.90;;;;;;5093099;28;20032;-62
2021/03/07 09:40:07;;;;;;;5.40;3.25;;;4.90;99.90;;;;;;5097289;28;20058;-63
2021/03/07 09:42:54;;;;;;;8.57;4.15;;;5.00;99.90;;;;;;5097219;28;20036;-63
2021/03/07 09:45:27;;;;;;;9.15;4.28;;;5.10;99.90;;;;;;5093772;28;20044;-62
2021/03/07 09:48:21;;;;;;;10.90;4.45;;;5.20;99.90;;;;;;5096890;28;20528;-63
2021/03/07 09:50:47;;;;;;;9.63;4.15;;;5.10;99.90;;;;;;5080406;28;20084;-63
2021/03/07 09:53:25;;;;;;;9.60;4.72;;;5.20;99.90;;;;;;5096930;28;20055;-63
2021/03/07 10:00:04;;;;;;;9.27;4.32;;;5.20;99.90;;;;;;5089626;28;20076;-63
2021/03/07 10:02:44;;;;;;;8.82;4.00;;;5.30;99.90;;;;;;5093214;28;20082;-63
2021/03/07 10:05:16;;;;;;;10.32;4.88;;;5.30;99.90;;;;;;5096536;28;20044;-63
2021/03/07 10:07:43;;;;;;;8.82;5.03;;;5.40;99.90;;;;;;5075919;28;20028;-63
2021/03/07 10:14:05;;;;;;;7.40;4.18;;;5.40;99.90;;;;;;5084596;28;20077;-63
2021/03/07 10:20:31;;;;;;;12.20;4.93;;;5.50;99.90;;;;;;5091466;28;20043;-63
2021/03/07 10:30:56;;;;;;;9.40;4.03;;;5.70;99.90;;;;;;5096421;28;20037;-63
2021/03/07 10:37:55;;;;;;;9.98;5.30;;;5.80;99.90;;;;;;5090582;28;20494;-63
2021/03/07 10:40:30;;;;;;;8.80;4.70;;;5.90;99.90;;;;;;5091573;28;20039;-63
2021/03/07 10:43:02;;;;;;;11.52;5.20;;;5.90;99.90;;;;;;5076495;28;20115;-62
2021/03/07 10:45:39;;;;;;;13.20;5.45;;;5.90;99.90;;;;;;5095935;28;20036;-63
2021/03/07 10:48:30;;;;;;;11.77;6.35;;;5.90;99.90;;;;;;5095043;28;20036;-63
2021/03/07 10:50:58;;;;;;;14.80;6.28;;;5.90;99.90;;;;;;5076785;28;20078;-63
2021/03/07 10:53:49;;;;;;;12.57;5.50;;;5.90;99.90;;;;;;5072132;28;20064;-63
2021/03/07 11:00:26;;;;;;;10.70;4.97;;;6.10;99.90;;;;;;5075396;28;20031;-63
2021/03/07 11:03:01;;;;;;;11.63;5.72;;;6.10;99.90;;;;;;5075548;28;20047;-63
2021/03/07 11:05:30;;;;;;;14.25;6.28;;;6.00;99.90;;;;;;5074024;28;20049;-63
2021/03/07 11:07:56;;;;;;;9.93;5.10;;;6.10;99.90;;;;;;5055284;28;20049;-63
2021/03/07 11:10:28;;;;;;;11.82;5.28;;;6.10;99.90;;;;;;5075224;28;20041;-63
2021/03/07 11:13:08;;;;;;;8.65;5.03;;;6.10;99.90;;;;;;5074977;28;20071;-63
2021/03/07 11:15:36;;;;;;;10.27;4.75;;;6.20;99.90;;;;;;5070803;28;20044;-63
2021/03/07 11:18:20;;;;;;;7.97;4.78;;;6.30;99.90;;;;;;5074978;28;20037;-63
2021/03/07 11:20:47;;;;;;;8.07;4.70;;;6.40;99.90;;;;;;5071494;28;20048;-63
2021/03/07 11:23:50;;;;;;;14.38;5.00;;;6.40;99.90;;;;;;5075376;28;20048;-63
2021/03/07 11:30:34;;;;;;;9.52;5.57;;;6.40;99.90;;;;;;5074621;28;20035;-63
2021/03/07 11:33:04;;;;;;;11.52;6.32;;;6.40;99.90;;;;;;5068112;28;20036;-63
2021/03/07 11:39:23;;;;;;;9.00;5.03;;;6.40;99.90;;;;;;5064351;28;20035;-62
2021/03/07 11:42:04;;;;;;;11.02;6.00;;;6.50;99.90;;;;;;5074859;28;20052;-63
2021/03/07 11:47:54;;;;;;;11.30;5.80;;;6.40;99.90;;;;;;5063339;28;20044;-63
2021/03/07 11:51:09;;;;;;;12.38;6.63;;;6.40;99.90;;;;;;5074589;28;20456;-63
2021/03/07 11:58:05;;;;;;;16.13;7.55;;;6.40;99.90;;;;;;5094506;28;20408;-63
2021/03/07 12:00:34;;;;;;;16.50;7.30;;;6.40;99.90;;;;;;5094958;28;20040;-62
2021/03/07 12:03:21;;;;;;;15.88;8.13;;;6.30;99.90;;;;;;5094249;28;20044;-63
2021/03/07 12:05:59;;;;;;;15.63;8.02;;;6.20;99.90;;;;;;5094750;28;20377;-63
2021/03/07 12:16:13;;;;;;;19.63;8.45;;;6.20;99.90;;;;;;5094273;28;20104;-62
2021/03/07 12:18:54;;;;;;;21.27;8.90;;;6.30;99.90;;;;;;5078558;28;20092;-63
2021/03/07 12:21:20;;;;;;;16.08;7.47;;;6.20;99.90;;;;;;5062298;28;20055;-63
2021/03/07 12:28:07;;;;;;;15.90;7.50;;;6.20;99.90;;;;;;5093703;28;20031;-63
2021/03/07 12:30:43;;;;;;;20.75;10.15;;;6.30;99.90;;;;;;5093850;28;20059;-63
2021/03/07 12:33:12;;;;;;;19.35;8.80;;;6.20;99.90;;;;;;5076281;28;20047;-63
2021/03/07 12:35:49;;;;;;;20.67;9.52;;;6.20;99.90;;;;;;5090541;28;20059;-63
2021/03/07 12:38:21;;;;;;;23.13;10.93;;;6.30;99.90;;;;;;5093626;28;20048;-62
2021/03/07 12:40:49;;;;;;;20.08;9.45;;;6.20;99.90;;;;;;5092547;28;20395;-63
2021/03/07 12:43:21;;;;;;;24.65;10.23;;;6.20;99.90;;;;;;5093792;28;20039;-63
2021/03/07 12:45:52;;;;;;;21.02;9.98;;;6.20;99.90;;;;;;5093851;28;20056;-63
2021/03/07 12:48:19;;;;;;;20.50;10.20;;;6.10;99.90;;;;;;5093691;28;20048;-63
2021/03/07 12:50:45;;;;;;;24.17;10.05;;;6.00;99.90;;;;;;5093966;28;20400;-62
2021/03/07 12:53:19;;;;;;;22.33;10.45;;;6.00;99.90;;;;;;5093465;28;20078;-63
2021/03/07 12:55:45;;;;;;;22.38;10.20;;;6.00;99.90;;;;;;5092366;28;20041;-63
2021/03/07 12:58:23;;;;;;;19.85;9.10;;;6.10;99.90;;;;;;5093604;28;20086;-63
2021/03/07 13:00:51;;;;;;;30.48;12.65;;;6.10;99.90;;;;;;5093466;28;20399;-64
2021/03/07 13:03:24;;;;;;;21.90;10.75;;;6.20;99.90;;;;;;5093588;28;20040;-63
2021/03/07 13:05:53;;;;;;;31.60;13.38;;;6.10;99.90;;;;;;5091488;28;20056;-63
2021/03/07 13:12:17;;;;;;;28.77;12.50;;;6.10;99.90;;;;;;5092328;28;20494;-63
2021/03/07 13:14:55;;;;;;;27.05;11.50;;;6.20;99.90;;;;;;5073961;28;20044;-62
2021/03/07 13:24:49;;;;;;;21.25;10.55;;;6.20;99.90;;;;;;5093294;28;20039;-63
2021/03/07 13:34:42;;;;;;;27.25;11.80;;;6.10;99.90;;;;;;5092836;28;20098;-63
2021/03/07 13:37:26;;;;;;;23.98;10.65;;;6.00;99.90;;;;;;5074846;28;20040;-62
2021/03/07 13:39:58;;;;;;;22.92;10.48;;;6.00;99.90;;;;;;5092933;28;20101;-62
2021/03/07 13:42:32;;;;;;;27.52;11.25;;;6.00;99.90;;;;;;5092998;28;20048;-63
2021/03/07 13:45:28;;;;;;;22.83;9.98;;;5.90;99.90;;;;;;5086836;28;20044;-63
2021/03/07 13:48:11;;;;;;;20.75;9.50;;;5.90;99.90;;;;;;5091780;28;20089;-64
2021/03/07 13:58:06;;;;;;;19.92;9.75;;;6.00;99.90;;;;;;5075544;28;20044;-62
2021/03/07 14:00:37;;;;;;;22.20;11.77;;;6.10;99.90;;;;;;5093011;28;20438;-64
2021/03/07 14:03:04;;;;;;;27.15;11.48;;;6.00;99.90;;;;;;5074027;28;20048;-64
2021/03/07 14:09:52;;;;;;;20.38;10.13;;;6.10;99.90;;;;;;5092827;28;20027;-64
2021/03/07 14:12:23;;;;;;;24.27;9.63;;;6.10;99.90;;;;;;5092805;28;20051;-64
2021/03/07 14:14:57;;;;;;;23.67;9.88;;;6.10;99.90;;;;;;5075191;28;20044;-64
2021/03/07 14:17:29;;;;;;;17.98;8.57;;;6.20;99.90;;;;;;5090657;28;20044;-64
2021/03/07 14:20:01;;;;;;;21.55;9.18;;;6.20;99.90;;;;;;5072724;28;20033;-64
2021/03/07 14:22:32;;;;;;;22.50;10.57;;;6.20;99.90;;;;;;5092792;28;20404;-64
2021/03/07 14:25:00;;;;;;;25.20;8.50;;;6.00;99.90;;;;;;5076434;28;20045;-62
2021/03/07 14:27:30;;;;;;;22.15;9.95;;;6.20;99.90;;;;;;5096880;28;20048;-62
2021/03/07 14:29:58;;;;;;;19.30;9.48;;;6.10;99.90;;;;;;5096259;28;20040;-62
2021/03/07 14:32:35;;;;;;;17.83;9.05;;;6.10;99.90;;;;;;5095525;28;20462;-63
2021/03/07 14:35:15;;;;;;;19.30;8.63;;;6.00;99.90;;;;;;5095942;28;20048;-64
2021/03/07 14:38:06;;;;;;;26.02;10.68;;;5.90;99.90;;;;;;5078060;28;20353;-64
2021/03/07 14:40:50;;;;;;;21.98;9.68;;;6.00;99.90;;;;;;5096075;28;20040;-63
2021/03/07 14:47:09;;;;;;;18.05;8.73;;;5.90;99.90;;;;;;5095613;28;20035;-64
2021/03/07 14:49:59;;;;;;;21.67;9.32;;;5.90;99.90;;;;;;5095710;28;20048;-64
2021/03/07 14:52:30;;;;;;;18.48;8.00;;;5.90;99.90;;;;;;5095187;28;20047;-63
2021/03/07 14:54:59;;;;;;;18.75;8.40;;;5.80;99.90;;;;;;5069742;28;20048;-64
2021/03/07 14:57:34;;;;;;;22.98;9.80;;;5.90;99.90;;;;;;5070259;28;20170;-64
2021/03/07 15:00:00;;;;;;;15.95;7.60;;;5.80;99.90;;;;;;5067608;28;20048;-64
2021/03/07 15:02:33;;;;;;;20.15;9.10;;;5.90;99.90;;;;;;5075641;28;20049;-64
2021/03/07 15:05:07;;;;;;;17.45;8.82;;;5.90;99.90;;;;;;5074381;28;20397;-64
2021/03/07 15:07:34;;;;;;;21.60;9.52;;;5.80;99.90;;;;;;5074211;28;20476;-64
2021/03/07 15:17:34;;;;;;;16.65;7.75;;;5.80;99.90;;;;;;5074139;28;20499;-64
2021/03/07 15:20:13;;;;;;;29.20;10.73;;;5.80;99.90;;;;;;5070225;28;20040;-65
2021/03/07 15:22:41;;;;;;;19.60;8.38;;;5.80;99.90;;;;;;5072043;28;20047;-64
2021/03/07 15:25:11;;;;;;;21.92;10.48;;;5.80;99.90;;;;;;5075040;28;20044;-65
2021/03/07 15:35:17;;;;;;;16.25;7.93;;;5.70;99.90;;;;;;5074041;28;20111;-64
2021/03/07 15:41:16;;;;;;;21.10;9.13;;;5.70;99.90;;;;;;5070762;28;20044;-63
2021/03/07 15:43:48;;;;;;;21.15;9.80;;;5.70;99.90;;;;;;5074794;28;20068;-63
2021/03/07 15:46:20;;;;;;;26.42;11.23;;;5.80;99.90;;;;;;5074445;28;20048;-64
2021/03/07 15:48:46;;;;;;;24.73;10.10;;;5.70;99.90;;;;;;5070661;28;20052;-64
2021/03/07 15:51:20;;;;;;;22.23;10.18;;;5.80;99.90;;;;;;5074538;28;20044;-65
2021/03/07 15:53:47;;;;;;;21.45;10.68;;;5.70;99.90;;;;;;5072141;28;20087;-63
2021/03/07 15:56:35;;;;;;;23.70;11.07;;;5.70;99.90;;;;;;5074169;28;20054;-63
2021/03/07 15:59:26;;;;;;;27.05;10.57;;;5.60;99.90;;;;;;5065390;28;20064;-63
2021/03/07 16:01:53;;;;;;;20.23;9.95;;;5.60;99.90;;;;;;5059578;28;20123;-64
2021/03/07 16:04:25;;;;;;;32.00;12.05;;;5.60;99.90;;;;;;5074304;28;20045;-64
2021/03/07 16:06:59;;;;;;;23.60;10.52;;;5.60;99.90;;;;;;5058825;28;20503;-67
2021/03/07 16:13:21;;;;;;;24.50;10.57;;;5.60;99.90;;;;;;5073648;28;20043;-64
2021/03/07 16:16:37;;;;;;;23.13;10.93;;;5.60;99.90;;;;;;5074255;28;20072;-64
2021/03/07 16:19:08;;;;;;;24.88;10.95;;;5.60;99.90;;;;;;5068276;28;20093;-64
2021/03/07 16:21:50;;;;;;;24.08;11.05;;;5.60;99.90;;;;;;5073728;28;20052;-65
2021/03/07 16:24:22;;;;;;;25.08;11.05;;;5.60;99.90;;;;;;5073232;28;20461;-64
2021/03/07 16:27:19;;;;;;;20.67;9.20;;;5.60;99.90;;;;;;5073983;28;20040;-65
2021/03/07 16:29:48;;;;;;;18.00;7.75;;;5.60;99.90;;;;;;5073758;28;20059;-64
2021/03/07 16:39:11;;;;;;;29.40;10.40;;;5.70;99.90;;;;;;5073398;28;20049;-63
2021/03/07 16:41:43;;;;;;;29.05;11.57;;;5.70;99.90;;;;;;5074201;28;20135;-63
2021/03/07 16:44:14;;;;;;;32.88;11.35;;;5.70;99.90;;;;;;5068469;28;20051;-62
2021/03/07 16:46:39;;;;;;;23.02;10.43;;;5.60;99.90;;;;;;5051766;28;20048;-62
2021/03/07 16:49:11;;;;;;;18.58;8.57;;;5.70;99.90;;;;;;5067443;28;20041;-63
2021/03/07 16:51:45;;;;;;;31.52;10.73;;;5.60;99.90;;;;;;5054050;28;20149;-62
2021/03/07 16:54:21;;;;;;;;;;;5.50;99.90;;;;;;5073567;28;20060;-63
2021/03/07 16:56:54;;;;;;;20.50;9.55;;;5.60;99.90;;;;;;5072540;28;19928;-62
2021/03/07 16:59:34;;;;;;;24.47;10.53;;;5.50;99.90;;;;;;5073195;28;20041;-63
2021/03/07 17:02:09;;;;;;;26.02;9.85;;;5.50;99.90;;;;;;5067486;28;20101;-63
2021/03/07 17:04:48;;;;;;;26.98;9.95;;;5.70;99.90;;;;;;5073833;28;20044;-63
2021/03/07 17:11:38;;;;;;;18.45;8.43;;;5.50;99.90;;;;;;5069376;28;20085;-62
2021/03/07 17:14:14;;;;;;;20.55;9.25;;;5.50;99.90;;;;;;5067972;28;20111;-63
2021/03/07 17:16:44;;;;;;;19.77;9.88;;;5.50;99.90;;;;;;5067255;28;20040;-63
2021/03/07 17:19:17;;;;;;;18.13;7.75;;;5.50;99.90;;;;;;5073197;28;20102;-63
2021/03/07 17:22:14;;;;;;;32.83;11.38;;;5.50;99.90;;;;;;5068481;28;20047;-62
2021/03/07 17:29:09;;;;;;;27.73;9.50;;;5.50;99.90;;;;;;5072827;28;20093;-62
2021/03/07 17:31:40;;;;;;;20.90;9.52;;;5.50;99.90;;;;;;5072883;28;20097;-62
2021/03/07 17:34:14;;;;;;;22.75;9.10;;;5.50;99.90;;;;;;5073324;28;20495;-63
2021/03/07 17:36:41;;;;;;;24.05;10.35;;;5.50;99.90;;;;;;5053406;28;20136;-62
2021/03/07 17:39:09;;;;;;;17.70;9.13;;;5.40;99.90;;;;;;5073068;28;20115;-62
2021/03/07 17:41:58;;;;;;;23.02;9.10;;;5.50;99.90;;;;;;5071775;28;20129;-63
2021/03/07 17:44:58;;;;;;;18.75;8.18;;;5.40;99.90;;;;;;5067830;28;20059;-62
2021/03/07 17:47:52;;;;;;;17.27;8.25;;;5.40;99.90;;;;;;5058633;28;20041;-62
2021/03/07 17:54:09;;;;;;;23.58;7.72;;;5.50;99.90;;;;;;5064918;28;20056;-62
2021/03/07 17:56:43;;;;;;;22.77;9.23;;;5.50;99.90;;;;;;5093129;28;20047;-62
2021/03/07 17:59:15;;;;;;;19.02;8.23;;;5.40;99.90;;;;;;5092407;28;20040;-62
2021/03/07 18:02:15;;;;;;;23.70;9.50;;;5.40;99.90;;;;;;5078937;28;20040;-62
2021/03/07 18:04:42;;;;;;;20.27;9.10;;;5.40;99.90;;;;;;5096888;28;20119;-63
2021/03/07 18:07:14;;;;;;;21.88;9.20;;;5.40;99.90;;;;;;5078448;28;20040;-64
2021/03/07 18:17:06;;;;;;;21.55;9.20;;;5.40;99.90;;;;;;5096001;28;20043;-62
2021/03/07 18:19:44;;;;;;;25.83;9.82;;;5.40;99.90;;;;;;5096361;28;20036;-62
2021/03/07 18:22:36;;;;;;;24.42;9.13;;;5.30;99.90;;;;;;5074438;28;20044;-63
2021/03/07 18:29:03;;;;;;;21.67;8.85;;;5.30;99.90;;;;;;5096128;28;20039;-63
2021/03/07 18:31:39;;;;;;;18.63;8.18;;;5.30;99.90;;;;;;5076939;28;20052;-63
2021/03/07 18:34:05;;;;;;;22.05;9.80;;;5.20;99.90;;;;;;5096463;28;20078;-62